Time;durP1;ratioP1;P1;durP2;ratioP2;P2;SDS_P1;SDS_P2;PMS_P1;PMS_P2;Temp;Humidity;BMP_temperature;BMP_pressure;BME280_temperature;BME280_humidity;BME280_pressure;Samples;Min_cycle;Max_cycle;Signal;HPM_P1;HPM_P2
2024/03/17 00:00:25;;;;;;;22.02;19.70;;;;;;;;;;5122697;28;20206;-81
2024/03/17 00:02:52;;;;;;;20.65;19.25;;;;;;;;;;5121676;28;20223;-81
2024/03/17 00:05:18;;;;;;;19.45;17.98;;;;;;;;;;5122439;28;20226;-81
2024/03/17 00:07:47;;;;;;;19.65;18.23;;;;;;;;;;5122154;28;20213;-80
2024/03/17 00:10:13;;;;;;;21.83;20.00;;;;;;;;;;5122162;28;20252;-82
2024/03/17 00:12:40;;;;;;;20.10;18.63;;;;;;;;;;5121541;28;20212;-81
2024/03/17 00:15:07;;;;;;;19.15;17.95;;;;;;;;;;5122062;28;20287;-81
2024/03/17 00:17:34;;;;;;;20.67;18.98;;;;;;;;;;5122853;28;20240;-80
2024/03/17 00:20:03;;;;;;;19.17;17.98;;;;;;;;;;5121990;28;20202;-81
2024/03/17 00:22:35;;;;;;;18.55;17.55;;;;;;;;;;5120156;28;20198;-81
2024/03/17 00:25:03;;;;;;;19.55;18.17;;;;;;;;;;5121927;27;20635;-81
2024/03/17 00:27:30;;;;;;;19.02;17.70;;;;;;;;;;5138128;27;20210;-80
2024/03/17 00:29:56;;;;;;;18.90;17.60;;;;;;;;;;5101828;28;20347;-81
2024/03/17 00:32:24;;;;;;;18.65;17.52;;;;;;;;;;5101447;28;20248;-81
2024/03/17 00:34:50;;;;;;;19.00;17.70;;;;;;;;;;5101966;28;20284;-81
2024/03/17 00:37:17;;;;;;;18.23;17.00;;;;;;;;;;5102958;28;20194;-81
2024/03/17 00:39:43;;;;;;;19.20;18.10;;;;;;;;;;5102768;28;20203;-81
2024/03/17 00:42:12;;;;;;;19.58;18.20;;;;;;;;;;5102090;28;20261;-80
2024/03/17 00:44:39;;;;;;;19.67;17.88;;;;;;;;;;5101629;28;20230;-80
2024/03/17 00:47:08;;;;;;;19.70;18.40;;;;;;;;;;5102462;28;20219;-81
2024/03/17 00:49:34;;;;;;;20.20;18.58;;;;;;;;;;5102343;28;20284;-80
2024/03/17 00:52:01;;;;;;;19.80;18.20;;;;;;;;;;5101812;28;20192;-81
2024/03/17 00:54:27;;;;;;;19.77;18.15;;;;;;;;;;5101705;28;20219;-80
2024/03/17 00:56:53;;;;;;;20.83;19.10;;;;;;;;;;5102503;28;20229;-80
2024/03/17 00:59:21;;;;;;;20.48;19.10;;;;;;;;;;5102827;28;20237;-80
2024/03/17 01:01:48;;;;;;;17.75;16.75;;;;;;;;;;5100745;28;20219;-81
2024/03/17 01:04:14;;;;;;;19.08;17.98;;;;;;;;;;5099999;28;20226;-81
2024/03/17 01:06:41;;;;;;;20.35;18.90;;;;;;;;;;5100972;28;20233;-80
2024/03/17 01:09:08;;;;;;;19.85;18.48;;;;;;;;;;5101202;28;20212;-81
2024/03/17 01:11:35;;;;;;;17.90;17.00;;;;;;;;;;5100954;28;20253;-81
2024/03/17 01:14:01;;;;;;;19.67;18.08;;;;;;;;;;5099419;28;20226;-80
2024/03/17 01:16:29;;;;;;;18.30;17.10;;;;;;;;;;5100984;28;20422;-80
2024/03/17 01:18:55;;;;;;;18.33;16.98;;;;;;;;;;5100952;28;20249;-80
2024/03/17 01:21:24;;;;;;;19.55;18.45;;;;;;;;;;5100611;28;20214;-81
2024/03/17 01:23:50;;;;;;;19.60;18.30;;;;;;;;;;5101312;28;20936;-80
2024/03/17 01:26:17;;;;;;;20.17;18.80;;;;;;;;;;5100829;28;20292;-80
2024/03/17 01:28:43;;;;;;;20.42;18.85;;;;;;;;;;5100206;28;20206;-80
2024/03/17 01:31:10;;;;;;;19.30;17.90;;;;;;;;;;5099491;28;20536;-80
2024/03/17 01:33:37;;;;;;;20.30;18.95;;;;;;;;;;5100082;28;20222;-79
2024/03/17 01:36:05;;;;;;;19.35;18.25;;;;;;;;;;5102676;28;20202;-79
2024/03/17 01:38:32;;;;;;;20.00;18.00;;;;;;;;;;5101220;28;20639;-79
2024/03/17 01:40:59;;;;;;;19.38;18.25;;;;;;;;;;5107595;28;20293;-80
2024/03/17 01:43:25;;;;;;;20.35;18.25;;;;;;;;;;5120675;28;20210;-79
2024/03/17 01:45:52;;;;;;;19.00;17.55;;;;;;;;;;5120105;28;20293;-80
2024/03/17 01:48:19;;;;;;;18.83;17.55;;;;;;;;;;5120500;28;20284;-80
2024/03/17 01:50:49;;;;;;;19.98;18.50;;;;;;;;;;5118827;28;20224;-79
2024/03/17 01:53:15;;;;;;;18.60;17.50;;;;;;;;;;5119743;28;20236;-79
2024/03/17 01:55:44;;;;;;;19.42;18.15;;;;;;;;;;5118916;28;20209;-80
2024/03/17 01:58:10;;;;;;;19.25;17.73;;;;;;;;;;5119805;28;20199;-79
2024/03/17 02:00:38;;;;;;;20.45;18.85;;;;;;;;;;5118960;28;20197;-80
2024/03/17 02:03:04;;;;;;;18.88;17.77;;;;;;;;;;5120375;28;20884;-79
2024/03/17 02:05:31;;;;;;;18.40;17.30;;;;;;;;;;5120806;28;20225;-79
2024/03/17 02:07:59;;;;;;;19.15;18.05;;;;;;;;;;5120598;28;20243;-80
2024/03/17 02:10:26;;;;;;;20.88;19.15;;;;;;;;;;5106868;28;20227;-79
2024/03/17 02:12:52;;;;;;;19.40;18.00;;;;;;;;;;5100877;28;20213;-80
2024/03/17 02:15:19;;;;;;;19.10;17.70;;;;;;;;;;5111574;28;20229;-78
2024/03/17 02:17:45;;;;;;;21.50;19.48;;;;;;;;;;5120045;28;20266;-80
2024/03/17 02:20:14;;;;;;;20.17;18.55;;;;;;;;;;5103429;28;20559;-80
2024/03/17 02:22:41;;;;;;;19.63;18.33;;;;;;;;;;5101950;28;20207;-80
2024/03/17 02:25:08;;;;;;;19.95;18.55;;;;;;;;;;5102969;28;20225;-79
2024/03/17 02:27:34;;;;;;;21.58;19.33;;;;;;;;;;5101557;28;20289;-79
2024/03/17 02:30:01;;;;;;;19.95;18.65;;;;;;;;;;5103456;28;20237;-80
2024/03/17 02:32:27;;;;;;;19.95;18.25;;;;;;;;;;5101926;28;20206;-79
2024/03/17 02:34:56;;;;;;;20.25;18.23;;;;;;;;;;5102138;28;20290;-79
2024/03/17 02:37:22;;;;;;;20.25;18.85;;;;;;;;;;5102294;28;20214;-80
2024/03/17 02:39:51;;;;;;;19.85;18.55;;;;;;;;;;5119931;28;20190;-80
2024/03/17 02:42:17;;;;;;;18.92;17.92;;;;;;;;;;5122613;28;20201;-80
2024/03/17 02:44:44;;;;;;;20.52;19.10;;;;;;;;;;5104197;28;20227;-80
2024/03/17 02:47:11;;;;;;;18.88;17.88;;;;;;;;;;5101997;28;20202;-80
2024/03/17 02:49:39;;;;;;;19.48;18.30;;;;;;;;;;5103018;28;20203;-79
2024/03/17 02:52:06;;;;;;;20.20;18.90;;;;;;;;;;5102452;28;20205;-79
2024/03/17 02:54:35;;;;;;;20.83;19.20;;;;;;;;;;5102362;28;20233;-80
2024/03/17 02:57:03;;;;;;;19.73;18.52;;;;;;;;;;5103393;28;20211;-80
2024/03/17 02:59:31;;;;;;;21.75;19.70;;;;;;;;;;5106791;28;20202;-80
2024/03/17 03:01:58;;;;;;;19.45;18.25;;;;;;;;;;5103002;28;20265;-79
2024/03/17 03:04:25;;;;;;;19.95;18.73;;;;;;;;;;5103015;28;20268;-79
2024/03/17 03:06:52;;;;;;;20.27;18.88;;;;;;;;;;5103442;28;20211;-80
2024/03/17 03:09:25;;;;;;;20.55;19.25;;;;;;;;;;5101651;28;20321;-81
2024/03/17 03:11:52;;;;;;;21.67;20.08;;;;;;;;;;5100945;28;20285;-79
2024/03/17 03:14:21;;;;;;;21.83;20.13;;;;;;;;;;5101654;28;20227;-79
2024/03/17 03:16:49;;;;;;;20.02;18.92;;;;;;;;;;5102700;28;20220;-79
2024/03/17 03:19:16;;;;;;;20.90;19.48;;;;;;;;;;5101569;28;20276;-79
2024/03/17 03:21:43;;;;;;;21.00;19.45;;;;;;;;;;5101477;28;20198;-79
2024/03/17 03:24:10;;;;;;;21.40;19.80;;;;;;;;;;5101620;28;20702;-80
2024/03/17 03:26:38;;;;;;;20.92;19.52;;;;;;;;;;5101395;28;20207;-79
2024/03/17 03:29:05;;;;;;;21.23;19.63;;;;;;;;;;5101894;28;20293;-81
2024/03/17 03:31:34;;;;;;;21.38;19.58;;;;;;;;;;5101382;28;20231;-80
2024/03/17 03:34:02;;;;;;;20.50;19.27;;;;;;;;;;5102475;28;20280;-79
2024/03/17 03:36:29;;;;;;;21.50;19.88;;;;;;;;;;5103396;28;20207;-80
2024/03/17 03:38:58;;;;;;;20.38;19.05;;;;;;;;;;5101641;28;20248;-80
2024/03/17 03:41:25;;;;;;;20.90;18.98;;;;;;;;;;5111605;28;20218;-80
2024/03/17 03:43:52;;;;;;;20.02;18.73;;;;;;;;;;5113535;28;20241;-80
2024/03/17 03:46:20;;;;;;;20.98;19.58;;;;;;;;;;5111104;28;20229;-79
2024/03/17 03:48:48;;;;;;;20.85;19.50;;;;;;;;;;5103021;28;20215;-80
2024/03/17 03:51:15;;;;;;;20.77;19.05;;;;;;;;;;5101488;28;20589;-80
2024/03/17 03:53:43;;;;;;;21.10;19.30;;;;;;;;;;5103094;28;20706;-80
2024/03/17 03:56:10;;;;;;;20.92;19.65;;;;;;;;;;5103531;28;20297;-80
2024/03/17 03:58:37;;;;;;;21.35;19.80;;;;;;;;;;5111692;28;20202;-80
2024/03/17 04:01:05;;;;;;;20.13;18.60;;;;;;;;;;5110569;28;20190;-80
2024/03/17 04:03:32;;;;;;;19.65;18.38;;;;;;;;;;5111196;28;20216;-80
2024/03/17 04:06:05;;;;;;;20.83;19.10;;;;;;;;;;5122859;28;20199;-79
2024/03/17 04:08:31;;;;;;;20.20;18.67;;;;;;;;;;5120799;28;20247;-81
2024/03/17 04:10:59;;;;;;;20.42;19.08;;;;;;;;;;5119516;28;20218;-82
2024/03/17 04:13:27;;;;;;;21.23;19.85;;;;;;;;;;5120637;28;20208;-82
2024/03/17 04:15:56;;;;;;;21.23;19.42;;;;;;;;;;5120451;28;20219;-82
2024/03/17 04:18:24;;;;;;;22.75;20.50;;;;;;;;;;5121071;28;20621;-82
2024/03/17 04:20:51;;;;;;;21.48;19.90;;;;;;;;;;5119632;28;20264;-81
2024/03/17 04:23:20;;;;;;;22.08;20.67;;;;;;;;;;5119988;28;20220;-82
2024/03/17 04:25:47;;;;;;;21.30;19.88;;;;;;;;;;5121483;28;20198;-82
2024/03/17 04:28:15;;;;;;;20.90;19.50;;;;;;;;;;5120379;28;20210;-81
2024/03/17 04:30:42;;;;;;;21.40;19.75;;;;;;;;;;5119705;28;20257;-83
2024/03/17 04:33:10;;;;;;;21.35;19.65;;;;;;;;;;5120118;28;20216;-82
2024/03/17 04:35:37;;;;;;;21.45;19.95;;;;;;;;;;5120136;28;20238;-79
2024/03/17 04:38:05;;;;;;;22.63;20.77;;;;;;;;;;5121573;28;20202;-79
2024/03/17 04:40:33;;;;;;;21.17;19.67;;;;;;;;;;5121456;28;20201;-80
2024/03/17 04:43:00;;;;;;;22.27;20.63;;;;;;;;;;5120480;28;20330;-80
2024/03/17 04:45:27;;;;;;;21.52;19.75;;;;;;;;;;5120641;28;20218;-79
2024/03/17 04:47:54;;;;;;;22.85;20.52;;;;;;;;;;5120432;28;20194;-79
2024/03/17 04:50:22;;;;;;;21.50;20.00;;;;;;;;;;5120623;28;20214;-80
2024/03/17 04:52:50;;;;;;;20.50;19.10;;;;;;;;;;5119859;27;20770;-80
2024/03/17 04:55:18;;;;;;;20.63;19.10;;;;;;;;;;5121389;28;20235;-80
2024/03/17 04:57:46;;;;;;;21.77;20.05;;;;;;;;;;5121100;28;20202;-80
2024/03/17 05:00:13;;;;;;;20.95;19.58;;;;;;;;;;5121653;28;20232;-80
2024/03/17 05:02:41;;;;;;;22.48;20.33;;;;;;;;;;5120304;28;20208;-80
2024/03/17 05:05:10;;;;;;;21.45;19.40;;;;;;;;;;5121008;28;20226;-80
2024/03/17 05:07:37;;;;;;;20.98;19.27;;;;;;;;;;5121438;28;20301;-79
2024/03/17 05:10:05;;;;;;;21.13;19.75;;;;;;;;;;5108762;28;20628;-80
2024/03/17 05:12:32;;;;;;;22.00;19.75;;;;;;;;;;5099520;28;20233;-80
2024/03/17 05:15:00;;;;;;;22.30;20.50;;;;;;;;;;5107345;28;20226;-80
2024/03/17 05:17:27;;;;;;;22.27;20.58;;;;;;;;;;5121048;28;20202;-80
2024/03/17 05:19:54;;;;;;;22.02;19.90;;;;;;;;;;5121109;28;20267;-79
2024/03/17 05:22:21;;;;;;;24.05;21.95;;;;;;;;;;5120175;28;20236;-80
2024/03/17 05:24:48;;;;;;;25.08;22.30;;;;;;;;;;5119985;28;20273;-79
2024/03/17 05:27:15;;;;;;;22.90;20.60;;;;;;;;;;5121121;28;20285;-80
2024/03/17 05:29:42;;;;;;;23.80;21.80;;;;;;;;;;5120420;28;20736;-79
2024/03/17 05:32:10;;;;;;;23.85;22.15;;;;;;;;;;5120120;28;20291;-80
2024/03/17 05:34:38;;;;;;;24.08;22.10;;;;;;;;;;5119814;28;20227;-79
2024/03/17 05:37:05;;;;;;;23.52;21.63;;;;;;;;;;5110215;28;20570;-79
2024/03/17 05:39:32;;;;;;;23.55;21.75;;;;;;;;;;5118062;28;20198;-79
2024/03/17 05:41:59;;;;;;;23.65;21.25;;;;;;;;;;5099656;28;20204;-79
2024/03/17 05:44:29;;;;;;;23.38;21.55;;;;;;;;;;5099263;28;20227;-79
2024/03/17 05:46:57;;;;;;;26.30;22.88;;;;;;;;;;5100613;28;20200;-80
2024/03/17 05:49:26;;;;;;;24.73;22.42;;;;;;;;;;5103839;28;20215;-80
2024/03/17 05:51:53;;;;;;;22.55;20.33;;;;;;;;;;5103155;28;20326;-80
2024/03/17 05:54:20;;;;;;;25.17;23.02;;;;;;;;;;5103228;28;20230;-80
2024/03/17 05:56:47;;;;;;;22.33;20.73;;;;;;;;;;5103538;28;20886;-79
2024/03/17 05:59:14;;;;;;;23.02;21.20;;;;;;;;;;5104046;28;20191;-80
2024/03/17 06:01:41;;;;;;;22.42;20.20;;;;;;;;;;5102935;28;20224;-79
2024/03/17 06:04:09;;;;;;;22.65;20.60;;;;;;;;;;5102731;28;20280;-80
2024/03/17 06:06:37;;;;;;;22.15;20.55;;;;;;;;;;5102979;28;20618;-80
2024/03/17 06:09:08;;;;;;;21.35;19.65;;;;;;;;;;5104026;28;20203;-81
2024/03/17 06:11:36;;;;;;;21.25;19.58;;;;;;;;;;5103097;28;20221;-80
2024/03/17 06:14:06;;;;;;;20.48;18.75;;;;;;;;;;5102640;28;20298;-80
2024/03/17 06:16:33;;;;;;;20.58;19.17;;;;;;;;;;5102494;28;20215;-79
2024/03/17 06:19:00;;;;;;;20.80;19.20;;;;;;;;;;5103410;28;20226;-80
2024/03/17 06:21:27;;;;;;;20.73;19.02;;;;;;;;;;5102635;28;20203;-80
2024/03/17 06:23:56;;;;;;;21.08;19.10;;;;;;;;;;5102861;28;20284;-80
2024/03/17 06:26:23;;;;;;;21.35;19.55;;;;;;;;;;5101678;28;20211;-80
2024/03/17 06:28:50;;;;;;;18.98;17.77;;;;;;;;;;5102574;28;20210;-80
2024/03/17 06:31:17;;;;;;;22.10;20.40;;;;;;;;;;5101901;28;20964;-80
2024/03/17 06:33:44;;;;;;;21.77;19.73;;;;;;;;;;5102183;28;20639;-81
2024/03/17 06:36:11;;;;;;;21.10;18.95;;;;;;;;;;5102313;28;20240;-80
2024/03/17 06:38:38;;;;;;;21.48;19.95;;;;;;;;;;5102508;28;20281;-81
2024/03/17 06:41:07;;;;;;;21.02;19.30;;;;;;;;;;5102126;28;20276;-80
2024/03/17 06:43:34;;;;;;;22.05;20.17;;;;;;;;;;5102200;28;20229;-80
2024/03/17 06:46:01;;;;;;;22.38;20.55;;;;;;;;;;5102606;28;20246;-80
2024/03/17 06:48:29;;;;;;;20.65;19.17;;;;;;;;;;5102407;28;20203;-80
2024/03/17 06:50:56;;;;;;;21.08;19.15;;;;;;;;;;5101738;28;20200;-80
2024/03/17 06:53:23;;;;;;;22.27;20.35;;;;;;;;;;5103416;28;20203;-82
2024/03/17 06:55:54;;;;;;;23.50;21.10;;;;;;;;;;5102938;28;20213;-81
2024/03/17 06:58:23;;;;;;;22.23;20.35;;;;;;;;;;5102462;28;20219;-81
2024/03/17 07:00:56;;;;;;;21.92;19.90;;;;;;;;;;5110836;28;20214;-80
2024/03/17 07:03:24;;;;;;;20.60;18.92;;;;;;;;;;5123187;28;20255;-79
2024/03/17 07:05:55;;;;;;;21.00;18.80;;;;;;;;;;5119326;28;20289;-81
2024/03/17 07:08:22;;;;;;;20.17;18.30;;;;;;;;;;5116210;28;20267;-80
2024/03/17 07:11:00;;;;;;;18.92;17.42;;;;;;;;;;5122769;28;20240;-81
2024/03/17 07:13:30;;;;;;;20.50;18.63;;;;;;;;;;5123429;28;20206;-81
2024/03/17 07:15:57;;;;;;;20.15;18.55;;;;;;;;;;5123745;28;20210;-81
2024/03/17 07:18:24;;;;;;;20.52;18.80;;;;;;;;;;5122697;28;20214;-80
2024/03/17 07:20:51;;;;;;;19.77;18.15;;;;;;;;;;5122589;28;20190;-80
2024/03/17 07:23:18;;;;;;;21.52;19.63;;;;;;;;;;5123279;28;20209;-81
2024/03/17 07:25:53;;;;;;;21.52;19.52;;;;;;;;;;5122554;28;20202;-80
2024/03/17 07:28:20;;;;;;;20.95;18.92;;;;;;;;;;5123144;28;20190;-81
2024/03/17 07:30:49;;;;;;;20.75;18.55;;;;;;;;;;5124520;28;20202;-81
2024/03/17 07:33:16;;;;;;;20.35;18.85;;;;;;;;;;5126134;28;20222;-82
2024/03/17 07:35:48;;;;;;;25.83;19.77;;;;;;;;;;5125930;28;20210;-80
2024/03/17 07:38:15;;;;;;;21.48;19.88;;;;;;;;;;5126021;28;20256;-81
2024/03/17 07:40:42;;;;;;;21.63;19.60;;;;;;;;;;5112138;28;20239;-81
2024/03/17 07:43:09;;;;;;;22.35;20.17;;;;;;;;;;5112490;28;20293;-80
2024/03/17 07:45:36;;;;;;;21.00;19.05;;;;;;;;;;5122923;28;20243;-81
2024/03/17 07:48:05;;;;;;;20.98;19.30;;;;;;;;;;5125774;28;20239;-81
2024/03/17 07:50:34;;;;;;;22.83;20.80;;;;;;;;;;5125085;28;20677;-81
2024/03/17 07:53:03;;;;;;;22.80;21.10;;;;;;;;;;5125126;28;20226;-80
2024/03/17 07:55:31;;;;;;;24.20;22.13;;;;;;;;;;5125844;28;20221;-81
2024/03/17 07:57:58;;;;;;;23.95;21.85;;;;;;;;;;5121817;28;20488;-82
2024/03/17 08:00:26;;;;;;;24.95;23.00;;;;;;;;;;5105241;28;20215;-81
2024/03/17 08:02:53;;;;;;;26.10;24.10;;;;;;;;;;5102774;28;20199;-81
2024/03/17 08:05:22;;;;;;;24.50;22.30;;;;;;;;;;5104275;28;20461;-81
2024/03/17 08:07:49;;;;;;;22.73;20.63;;;;;;;;;;5103886;28;20268;-81
2024/03/17 08:10:17;;;;;;;21.70;19.80;;;;;;;;;;5105288;28;20179;-82
2024/03/17 08:12:45;;;;;;;23.53;21.03;;;;;;;;;;5106839;28;20228;-84
2024/03/17 08:15:12;;;;;;;21.55;19.85;;;;;;;;;;5106514;28;20479;-85
2024/03/17 08:17:39;;;;;;;23.13;21.33;;;;;;;;;;5106006;28;20196;-84
2024/03/17 08:20:07;;;;;;;23.57;21.57;;;;;;;;;;5102147;28;20229;-81
2024/03/17 08:22:35;;;;;;;23.98;22.00;;;;;;;;;;5101292;28;20461;-81
2024/03/17 08:25:04;;;;;;;24.55;22.30;;;;;;;;;;5104150;28;20232;-82
2024/03/17 08:27:31;;;;;;;22.80;20.70;;;;;;;;;;5103887;28;20393;-81
2024/03/17 08:29:59;;;;;;;24.08;22.02;;;;;;;;;;5104000;28;20937;-82
2024/03/17 08:32:26;;;;;;;25.90;23.30;;;;;;;;;;5104767;28;20226;-81
2024/03/17 08:34:53;;;;;;;24.30;22.40;;;;;;;;;;5112733;28;20526;-81
2024/03/17 08:37:20;;;;;;;26.75;24.48;;;;;;;;;;5108902;28;20459;-81
2024/03/17 08:39:49;;;;;;;25.50;23.40;;;;;;;;;;5109909;28;20202;-81
2024/03/17 08:42:17;;;;;;;24.93;22.27;;;;;;;;;;5108234;28;20412;-81
2024/03/17 08:44:47;;;;;;;25.87;22.87;;;;;;;;;;5102829;28;20454;-83
2024/03/17 08:47:14;;;;;;;23.60;21.43;;;;;;;;;;5105351;28;20441;-82
2024/03/17 08:49:41;;;;;;;27.23;24.33;;;;;;;;;;5097647;28;20457;-83
2024/03/17 08:52:08;;;;;;;24.13;22.00;;;;;;;;;;5100177;28;20475;-85
2024/03/17 08:54:35;;;;;;;24.93;22.80;;;;;;;;;;5094875;28;20456;-81
2024/03/17 08:57:04;;;;;;;24.80;22.17;;;;;;;;;;5093021;28;20436;-82
2024/03/17 08:59:31;;;;;;;22.83;20.83;;;;;;;;;;5102687;28;20421;-81
2024/03/17 09:01:58;;;;;;;22.83;20.97;;;;;;;;;;5112304;28;20437;-82
2024/03/17 09:04:25;;;;;;;22.63;20.83;;;;;;;;;;5114916;28;20468;-83
2024/03/17 09:06:54;;;;;;;23.70;21.57;;;;;;;;;;5109606;28;20428;-82
2024/03/17 09:09:21;;;;;;;24.13;22.13;;;;;;;;;;5098804;28;20439;-82
2024/03/17 09:11:48;;;;;;;24.37;22.13;;;;;;;;;;5114293;28;20436;-82
2024/03/17 09:14:16;;;;;;;24.33;22.40;;;;;;;;;;5098877;28;20485;-83
2024/03/17 09:16:43;;;;;;;23.00;21.13;;;;;;;;;;5097848;28;20427;-84
2024/03/17 09:19:10;;;;;;;24.00;22.10;;;;;;;;;;5099137;28;20437;-83
2024/03/17 09:21:39;;;;;;;23.00;21.20;;;;;;;;;;5117117;28;20442;-82
2024/03/17 09:24:07;;;;;;;25.30;23.20;;;;;;;;;;5120800;28;20501;-82
2024/03/17 09:26:34;;;;;;;23.77;21.87;;;;;;;;;;5121678;28;21020;-82
2024/03/17 09:29:01;;;;;;;24.43;22.53;;;;;;;;;;5122697;28;20432;-81
2024/03/17 09:31:30;;;;;;;25.50;23.40;;;;;;;;;;5122305;28;20403;-84
2024/03/17 09:33:57;;;;;;;25.10;23.20;;;;;;;;;;5108361;28;20464;-80
2024/03/17 09:36:24;;;;;;;25.50;23.40;;;;;;;;;;5101943;28;20488;-82
2024/03/17 09:38:51;;;;;;;25.03;23.13;;;;;;;;;;5101403;28;20821;-80
2024/03/17 09:41:22;;;;;;;24.10;22.30;;;;;;;;;;5102331;28;20445;-81
2024/03/17 09:43:49;;;;;;;22.10;20.60;;;;;;;;;;5102621;28;20545;-80
2024/03/17 09:46:17;;;;;;;22.43;20.90;;;;;;;;;;5102043;28;20454;-81
2024/03/17 09:48:45;;;;;;;24.13;22.00;;;;;;;;;;5103486;28;20902;-84
2024/03/17 09:51:18;;;;;;;24.77;22.83;;;;;;;;;;5119434;28;20816;-84
2024/03/17 09:53:45;;;;;;;25.90;24.20;;;;;;;;;;5106942;28;20994;-84
2024/03/17 09:56:13;;;;;;;25.43;23.53;;;;;;;;;;5101973;28;20460;-82
2024/03/17 09:58:40;;;;;;;23.20;21.50;;;;;;;;;;5102163;28;20557;-83
2024/03/17 10:01:07;;;;;;;22.80;21.10;;;;;;;;;;5120636;28;20477;-83
2024/03/17 10:03:41;;;;;;;24.30;22.33;;;;;;;;;;5114114;28;20453;-84
2024/03/17 10:06:11;;;;;;;25.13;22.93;;;;;;;;;;5107371;27;20474;-83
2024/03/17 10:08:41;;;;;;;23.27;21.37;;;;;;;;;;5103094;28;20468;-85
2024/03/17 10:11:09;;;;;;;23.80;22.13;;;;;;;;;;5114381;27;20466;-85
2024/03/17 10:13:36;;;;;;;23.93;22.20;;;;;;;;;;5129998;27;20507;-85
2024/03/17 10:16:04;;;;;;;24.27;22.50;;;;;;;;;;5121696;28;20444;-84
2024/03/17 10:18:31;;;;;;;23.87;21.97;;;;;;;;;;5122599;28;21086;-84
2024/03/17 10:20:59;;;;;;;22.27;20.67;;;;;;;;;;5120219;28;20840;-84
2024/03/17 10:23:28;;;;;;;24.77;22.77;;;;;;;;;;5121846;28;20450;-83
2024/03/17 10:25:55;;;;;;;24.97;23.23;;;;;;;;;;5122677;28;20413;-87
2024/03/17 10:28:22;;;;;;;23.70;21.90;;;;;;;;;;5121966;28;20403;-83
2024/03/17 10:30:59;;;;;;;24.73;23.00;;;;;;;;;;5119107;28;20940;-78
2024/03/17 10:33:26;;;;;;;23.13;21.60;;;;;;;;;;5118008;28;20479;-79
2024/03/17 10:36:00;;;;;;;25.50;23.40;;;;;;;;;;5118326;28;20448;-79
2024/03/17 10:38:29;;;;;;;25.73;23.60;;;;;;;;;;5118253;28;20428;-79
2024/03/17 10:40:56;;;;;;;23.80;21.93;;;;;;;;;;5117488;28;20447;-80
2024/03/17 10:43:25;;;;;;;24.77;23.07;;;;;;;;;;5112422;27;20526;-79
2024/03/17 10:45:54;;;;;;;25.60;23.57;;;;;;;;;;5107199;28;20464;-81
2024/03/17 10:48:21;;;;;;;24.47;22.53;;;;;;;;;;5116874;28;20539;-79
2024/03/17 10:50:50;;;;;;;23.97;22.27;;;;;;;;;;5116135;28;20448;-79
2024/03/17 10:53:25;;;;;;;27.77;25.60;;;;;;;;;;5098193;28;20484;-81
2024/03/17 10:55:59;;;;;;;46.70;42.55;;;;;;;;;;5098410;28;20553;-84
2024/03/17 10:59:09;;;;;;;63.50;56.70;;;;;;;;;;5091815;27;20545;-82
2024/03/17 11:01:38;;;;;;;50.47;45.63;;;;;;;;;;5087166;28;20455;-86
2024/03/17 11:04:05;;;;;;;29.03;26.83;;;;;;;;;;5095561;28;20582;-82
2024/03/17 11:06:32;;;;;;;28.53;26.13;;;;;;;;;;5074293;28;20479;-81
2024/03/17 11:08:59;;;;;;;29.17;26.97;;;;;;;;;;5072669;28;20479;-81
2024/03/17 11:11:39;;;;;;;31.40;29.20;;;;;;;;;;5079294;28;20451;-81
2024/03/17 11:14:20;;;;;;;28.77;26.87;;;;;;;;;;5091296;28;20467;-79
2024/03/17 11:16:48;;;;;;;31.87;29.23;;;;;;;;;;5093656;28;20438;-82
2024/03/17 11:19:17;;;;;;;27.13;25.20;;;;;;;;;;5084352;28;20434;-82
2024/03/17 11:21:44;;;;;;;29.27;26.90;;;;;;;;;;5093904;28;20418;-81
2024/03/17 11:24:20;;;;;;;30.70;28.30;;;;;;;;;;5092596;28;20490;-81
2024/03/17 11:26:47;;;;;;;29.93;27.13;;;;;;;;;;5081645;28;20498;-80
2024/03/17 11:29:29;;;;;;;32.23;29.83;;;;;;;;;;5079065;28;20422;-80
2024/03/17 11:31:56;;;;;;;30.40;28.13;;;;;;;;;;5085973;28;20441;-80
2024/03/17 11:34:36;;;;;;;29.20;26.93;;;;;;;;;;5092863;28;20445;-81
2024/03/17 11:37:07;;;;;;;31.57;29.17;;;;;;;;;;5088472;28;20824;-81
2024/03/17 11:39:46;;;;;;;30.83;28.33;;;;;;;;;;5075695;28;20482;-80
2024/03/17 11:42:14;;;;;;;29.87;27.67;;;;;;;;;;5083960;28;20434;-81
2024/03/17 11:44:45;;;;;;;35.50;32.90;;;;;;;;;;5091047;28;20447;-81
2024/03/17 11:47:12;;;;;;;33.00;30.40;;;;;;;;;;5092530;28;20456;-85
2024/03/17 11:49:39;;;;;;;26.77;24.97;;;;;;;;;;5076877;28;20460;-81
2024/03/17 11:52:06;;;;;;;27.33;25.33;;;;;;;;;;5077985;28;20491;-82
2024/03/17 11:54:33;;;;;;;28.40;26.27;;;;;;;;;;5083002;28;20452;-80
2024/03/17 11:57:02;;;;;;;28.10;25.97;;;;;;;;;;5086373;28;20454;-81
2024/03/17 11:59:29;;;;;;;28.07;25.93;;;;;;;;;;5078559;28;20430;-82
2024/03/17 12:01:56;;;;;;;27.23;25.23;;;;;;;;;;5077503;28;20427;-81
2024/03/17 12:04:24;;;;;;;27.93;25.93;;;;;;;;;;5077309;28;20490;-81
2024/03/17 12:06:52;;;;;;;29.00;26.70;;;;;;;;;;5078462;28;20799;-81
2024/03/17 12:09:20;;;;;;;29.00;27.00;;;;;;;;;;5070812;28;20462;-81
2024/03/17 12:11:47;;;;;;;30.73;28.53;;;;;;;;;;5079088;28;20423;-83
2024/03/17 12:14:15;;;;;;;30.83;28.53;;;;;;;;;;5082407;28;20565;-81
2024/03/17 12:16:49;;;;;;;31.00;28.80;;;;;;;;;;5083457;28;20495;-83
2024/03/17 12:19:16;;;;;;;30.63;28.43;;;;;;;;;;5065334;28;21113;-83
2024/03/17 12:21:44;;;;;;;30.50;27.97;;;;;;;;;;5081226;28;20793;-83
2024/03/17 12:24:14;;;;;;;29.27;26.87;;;;;;;;;;5073307;28;20478;-82
2024/03/17 12:26:41;;;;;;;28.73;26.63;;;;;;;;;;5070743;28;20492;-83
2024/03/17 12:29:22;;;;;;;29.17;26.73;;;;;;;;;;5060797;28;20464;-83
2024/03/17 12:31:49;;;;;;;30.60;28.33;;;;;;;;;;5069712;28;20446;-83
2024/03/17 12:34:16;;;;;;;29.33;26.90;;;;;;;;;;5060526;28;20822;-81
2024/03/17 12:36:44;;;;;;;30.30;28.10;;;;;;;;;;5063103;28;20436;-81
2024/03/17 12:39:11;;;;;;;31.20;28.97;;;;;;;;;;5061573;28;20463;-81
2024/03/17 12:41:38;;;;;;;31.40;28.87;;;;;;;;;;5077731;28;20437;-81
2024/03/17 12:44:05;;;;;;;30.77;28.50;;;;;;;;;;5081341;28;20871;-81
2024/03/17 12:46:32;;;;;;;30.33;28.13;;;;;;;;;;5082117;28;20412;-81
2024/03/17 12:48:59;;;;;;;30.63;28.10;;;;;;;;;;5066640;28;20439;-79
2024/03/17 12:51:27;;;;;;;31.23;28.93;;;;;;;;;;5061204;28;20457;-81
2024/03/17 12:54:08;;;;;;;32.53;30.10;;;;;;;;;;5071220;28;20563;-81
2024/03/17 13:02:10;;;;;;;31.30;29.10;;;;;;;;;;5081358;28;20405;-81
2024/03/17 13:04:37;;;;;;;30.27;28.07;;;;;;;;;;5077222;28;20473;-81
2024/03/17 13:07:12;;;;;;;30.90;28.60;;;;;;;;;;5062080;28;20437;-82
2024/03/17 13:09:39;;;;;;;29.43;27.33;;;;;;;;;;5061384;28;20469;-81
2024/03/17 13:12:16;;;;;;;29.60;27.60;;;;;;;;;;5078165;28;20457;-80
2024/03/17 13:14:43;;;;;;;30.67;28.60;;;;;;;;;;5079169;28;20486;-86
2024/03/17 13:17:17;;;;;;;30.93;28.83;;;;;;;;;;5081683;28;20488;-87
2024/03/17 13:19:47;;;;;;;30.03;27.90;;;;;;;;;;5079630;28;20436;-82
2024/03/17 13:22:15;;;;;;;31.70;29.40;;;;;;;;;;5072850;28;20492;-82
2024/03/17 13:24:42;;;;;;;31.33;28.80;;;;;;;;;;5061184;28;20507;-79
2024/03/17 13:27:09;;;;;;;36.37;33.27;;;;;;;;;;5070129;28;20460;-78
2024/03/17 13:29:37;;;;;;;32.33;30.03;;;;;;;;;;5062926;28;20445;-80
2024/03/17 13:32:04;;;;;;;32.03;29.50;;;;;;;;;;5076562;28;20466;-82
2024/03/17 13:34:31;;;;;;;34.47;31.80;;;;;;;;;;5079605;28;20481;-83
2024/03/17 13:37:00;;;;;;;32.10;29.50;;;;;;;;;;5078707;28;20464;-81
2024/03/17 13:39:33;;;;;;;30.33;28.23;;;;;;;;;;5077534;28;20483;-79
2024/03/17 13:42:02;;;;;;;33.13;30.83;;;;;;;;;;5076875;28;20478;-79
2024/03/17 13:44:30;;;;;;;31.90;29.70;;;;;;;;;;5078155;28;20475;-79
2024/03/17 13:46:57;;;;;;;33.17;30.60;;;;;;;;;;5079723;28;20439;-79
2024/03/17 13:49:24;;;;;;;31.83;29.57;;;;;;;;;;5078511;28;20513;-80
2024/03/17 13:51:51;;;;;;;31.57;29.40;;;;;;;;;;5078489;28;20440;-80
2024/03/17 13:54:18;;;;;;;32.20;29.97;;;;;;;;;;5079362;28;20474;-80
2024/03/17 13:56:49;;;;;;;31.53;29.37;;;;;;;;;;5079549;28;20461;-79
2024/03/17 13:59:16;;;;;;;31.80;29.50;;;;;;;;;;5078634;28;20493;-80
2024/03/17 14:01:44;;;;;;;46.87;41.73;;;;;;;;;;5079203;28;20449;-80
2024/03/17 14:04:14;;;;;;;39.97;35.83;;;;;;;;;;5078848;28;20446;-79
2024/03/17 14:06:41;;;;;;;32.00;29.60;;;;;;;;;;5078195;28;20555;-79
2024/03/17 14:09:09;;;;;;;31.37;28.83;;;;;;;;;;5078844;28;20854;-80
2024/03/17 14:11:36;;;;;;;31.27;29.07;;;;;;;;;;5079084;28;20452;-79
2024/03/17 14:14:05;;;;;;;31.93;29.83;;;;;;;;;;5078854;28;20475;-80
2024/03/17 14:16:32;;;;;;;31.87;29.57;;;;;;;;;;5078942;28;20451;-79
2024/03/17 14:19:00;;;;;;;30.50;28.40;;;;;;;;;;5078268;28;20517;-79
2024/03/17 14:21:27;;;;;;;30.87;28.87;;;;;;;;;;5077870;28;20463;-80
2024/03/17 14:23:54;;;;;;;29.40;27.50;;;;;;;;;;5078537;28;20440;-79
2024/03/17 14:26:21;;;;;;;29.97;27.83;;;;;;;;;;5078672;28;20493;-80